Share

Isfara, Tajikistan

Khudzhand (UTDL) Elev 1450 ft | 40.22 °N, 69.69 °E | Change Station

Current weather conditions updated 25 minutes ago

Scattered Clouds
Scattered Clouds
59 °F
Feels Like 59 °F
N
4
Wind Variable Wind from Variable
Sunrise 5:34 AM
Sunset 6:59 PM
Moon Waning Gibbous

Tomorrow is forecast to be Cooler than today.

Pressure 30.04 in
Visibility 6.2 miles
Clouds Scattered Clouds 20000 ft
Dew Point 41 °F
Humidity 51%
Rainfall 0.00 in
Snow Depth Not available.
UV 0 out of 16
Pollen Not available.
Air Quality Not available.
Flu Activity Not available.
METAR UTDL 191830Z VRB02MPS 9999 SCT200 15/05 Q1017 NOSIG RMK QFE725/0967 88CLRD70

More Conditions Fewer Conditions

Pressure 30.04 in
Visibility 6.2 miles
Clouds Scattered Clouds 20000 ft
Dew Point 41 °F
Humidity 51%
Rainfall 0.00 in
Snow Depth Not available.
UV 0 out of 16
Pollen Not available.
Air Quality Not available.
Flu Activity Not available.
METAR UTDL 191830Z VRB02MPS 9999 SCT200 15/05 Q1017 NOSIG RMK QFE725/0967 88CLRD70

More Conditions Fewer Conditions

10-Day Weather Forecast

Almanac

Astronomy

Apr. 19, 2014 Rise Set
Actual Time 5:34 AM TJT 6:59 PM TJT
Civil Twilight 5:05 AM TJT 7:28 PM TJT
Nautical Twilight 4:31 AM TJT 8:02 PM TJT
Astronomical Twilight 3:56 AM TJT 8:38 PM TJT
Moon 11:16 PM TJT 8:26 AM TJT
Length of Visible Light 14h 22m
Length of Day
13h 25m
Tomorrow will be 2m 28s longer.
Waning Gibbous, 77% of the Moon is Illuminated
Today
Waning Gibbous
Apr 22
Last Quarter
Apr 29
New
May 6
First Quarter
May 14
Full

Today's Extremes

Country Highs Country Lows

Community

  • Piriapolis
    Piriapolis
  • A Glorious Morning
    A Glorious Morning
  • Tender Rays Of Hope
    Tender Rays Of Hope
  • Bleeding Hearts
    Bleeding Hearts
  • Sunset Silhouettes
    Sunset Silhouettes

WunderPhotos

Upload Photos

1,702,840 photos uploaded!

WunderBlogs® & News

Nearby

Snow Depth

Not available.

Coastal Water Temperatures

Place Temperature
No Stations Reporting

Earthquake Activity

City Distance Mag. Time & Date
No recent earthquake activity has been reported nearby.
Minimum magnitude displayed is 2.5.

Nearby Weather Stations

There are no personal weather stations in this area.

What do you think?

We're not finished. Please let us know what you like, what you don't like, and what you are still missing.